createdAt,value
2018-04-25T00:00:44.316Z,0.00
2018-04-25T00:01:44.299Z,0.00
2018-04-25T00:02:44.355Z,0.00
2018-04-25T00:03:44.710Z,0.00
2018-04-25T00:04:44.445Z,0.00
2018-04-25T00:05:44.234Z,0.00
2018-04-25T00:06:44.316Z,0.00
2018-04-25T00:07:44.191Z,0.00
2018-04-25T00:08:44.186Z,0.00
2018-04-25T00:09:44.613Z,0.00
2018-04-25T00:10:44.151Z,0.00
2018-04-25T00:11:44.238Z,0.00
2018-04-25T00:12:44.114Z,0.00
2018-04-25T00:13:44.100Z,0.00
2018-04-25T00:14:44.083Z,0.00
2018-04-25T00:15:44.712Z,0.00
2018-04-25T00:16:44.061Z,0.00
2018-04-25T00:17:44.039Z,0.00
2018-04-25T00:18:44.017Z,0.00
2018-04-25T00:19:43.997Z,0.00
2018-04-25T00:20:44.285Z,0.00
2018-04-25T00:21:44.017Z,0.00
2018-04-25T00:22:44.248Z,0.00
2018-04-25T00:23:43.929Z,0.00
2018-04-25T00:24:43.919Z,0.00
2018-04-25T00:25:43.897Z,0.00
2018-04-25T00:26:43.888Z,0.00
2018-04-25T00:27:43.980Z,0.00
2018-04-25T00:28:43.860Z,0.00
2018-04-25T00:29:44.237Z,0.00
2018-04-25T00:30:44.135Z,0.00
2018-04-25T00:31:43.802Z,0.00
2018-04-25T00:32:43.797Z,0.00
2018-04-25T00:33:43.923Z,0.00
2018-04-25T00:34:43.847Z,0.00
2018-04-25T00:35:43.725Z,0.00
2018-04-25T00:36:44.013Z,0.00
2018-04-25T00:37:43.696Z,0.00
2018-04-25T00:38:43.690Z,0.00
2018-04-25T00:39:43.719Z,0.00
2018-04-25T00:40:43.649Z,0.00
2018-04-25T00:41:43.732Z,0.00
2018-04-25T00:42:43.615Z,0.00
2018-04-25T00:43:43.909Z,0.00
2018-04-25T00:44:43.668Z,0.00
2018-04-25T00:45:43.690Z,0.00
2018-04-25T00:46:43.549Z,0.00
2018-04-25T00:47:43.534Z,0.00
2018-04-25T00:48:43.530Z,0.00
2018-04-25T00:49:43.613Z,0.00
2018-04-25T00:50:43.793Z,0.00
2018-04-25T00:51:43.518Z,0.00
2018-04-25T00:52:43.470Z,0.00
2018-04-25T00:53:43.441Z,0.00
2018-04-25T00:54:43.434Z,0.00
2018-04-25T00:55:43.404Z,0.00
2018-04-25T00:56:43.509Z,0.00
2018-04-25T00:57:43.736Z,0.00
2018-04-25T00:58:43.358Z,0.00
2018-04-25T00:59:43.341Z,0.00
2018-04-25T01:00:43.422Z,0.00
2018-04-25T01:01:43.564Z,0.00
2018-04-25T01:02:43.293Z,0.00
2018-04-25T01:03:43.372Z,0.00
2018-04-25T01:04:43.562Z,0.00
2018-04-25T01:05:43.247Z,0.00
2018-04-25T01:06:43.250Z,0.00
2018-04-25T01:07:43.310Z,0.00
2018-04-25T01:08:43.199Z,0.00
2018-04-25T01:09:43.380Z,0.00
2018-04-25T01:10:43.466Z,0.00
2018-04-25T01:11:43.209Z,0.00
2018-04-25T01:12:43.123Z,0.00
2018-04-25T01:13:43.107Z,0.00
2018-04-25T01:14:43.100Z,0.00
2018-04-25T01:15:43.135Z,0.00
2018-04-25T01:16:43.361Z,0.00
2018-04-25T01:17:43.052Z,0.00
2018-04-25T01:18:43.030Z,0.00
2018-04-25T01:19:43.022Z,0.00
2018-04-25T01:20:42.999Z,0.00
2018-04-25T01:21:43.031Z,0.00
2018-04-25T01:23:43.244Z,0.00
2018-04-25T01:24:43.037Z,0.00
2018-04-25T01:25:42.922Z,0.00
2018-04-25T01:26:42.899Z,0.00
2018-04-25T01:27:43.039Z,0.00
2018-04-25T01:28:42.866Z,0.00
2018-04-25T01:29:43.155Z,0.00
2018-04-25T01:30:42.852Z,0.00
2018-04-25T01:31:42.817Z,0.00
2018-04-25T01:32:42.815Z,0.00
2018-04-25T01:33:42.832Z,0.00
2018-04-25T01:34:42.767Z,0.00
2018-04-25T01:35:43.050Z,0.00
2018-04-25T01:36:42.743Z,0.00
2018-04-25T01:37:42.777Z,0.00
2018-04-25T01:38:42.709Z,0.00
2018-04-25T01:39:42.749Z,0.00
2018-04-25T01:40:42.676Z,0.00
2018-04-25T01:41:42.966Z,0.00
2018-04-25T01:42:42.641Z,0.00
2018-04-25T01:43:42.721Z,0.00
2018-04-25T01:44:42.603Z,0.00
2018-04-25T01:45:42.693Z,0.00
2018-04-25T01:46:42.933Z,0.00
2018-04-25T01:47:42.861Z,0.00
2018-04-25T01:48:42.545Z,0.00
2018-04-25T01:49:42.915Z,0.00
2018-04-25T01:50:42.607Z,0.00
2018-04-25T01:51:42.665Z,0.00
2018-04-25T01:52:42.779Z,0.00
2018-04-25T01:53:42.561Z,0.00
2018-04-25T01:54:42.770Z,0.00
2018-04-25T01:55:42.430Z,0.00
2018-04-25T01:56:42.409Z,0.00
2018-04-25T01:57:42.548Z,0.00
2018-04-25T01:58:42.381Z,0.00
2018-04-25T01:59:42.667Z,0.00
2018-04-25T02:00:42.449Z,0.00
2018-04-25T02:01:42.626Z,0.00
2018-04-25T02:02:42.717Z,0.00
2018-04-25T02:03:42.355Z,0.00
2018-04-25T02:04:42.291Z,0.00
2018-04-25T02:05:42.269Z,0.00
2018-04-25T02:06:42.249Z,0.00
2018-04-25T02:07:42.240Z,0.00
2018-04-25T02:08:42.522Z,0.00
2018-04-25T02:09:42.262Z,0.00
2018-04-25T02:10:42.192Z,0.00
2018-04-25T02:11:42.172Z,0.00
2018-04-25T02:12:42.154Z,0.00
2018-04-25T02:13:42.149Z,0.00
2018-04-25T02:14:42.222Z,0.00
2018-04-25T02:15:42.460Z,0.00
2018-04-25T02:16:42.801Z,0.00
2018-04-25T02:17:42.080Z,0.00
2018-04-25T02:18:42.160Z,0.00
2018-04-25T02:19:42.143Z,0.00
2018-04-25T02:20:42.130Z,0.00
2018-04-25T02:22:42.408Z,0.00
2018-04-25T02:23:42.083Z,0.00
2018-04-25T02:24:42.027Z,0.00
2018-04-25T02:25:41.955Z,0.00
2018-04-25T02:26:41.931Z,0.00
2018-04-25T02:27:41.972Z,0.00
2018-04-25T02:28:41.901Z,0.00
2018-04-25T02:29:42.194Z,0.00
2018-04-25T02:30:41.866Z,0.00
2018-04-25T02:31:41.913Z,0.00
2018-04-25T02:32:41.835Z,0.00
2018-04-25T02:33:41.871Z,0.00
2018-04-25T02:34:41.805Z,0.00
2018-04-25T02:35:41.787Z,0.00
2018-04-25T02:36:42.073Z,0.00
2018-04-25T02:37:41.760Z,0.00
2018-04-25T02:38:41.744Z,0.00
2018-04-25T02:39:41.773Z,0.00
2018-04-25T02:40:41.706Z,0.00
2018-04-25T02:41:41.696Z,0.00
2018-04-25T02:42:41.992Z,0.00
2018-04-25T02:43:41.757Z,0.00
2018-04-25T02:44:41.796Z,0.00
2018-04-25T02:45:41.683Z,0.00
2018-04-25T02:46:41.611Z,0.00
2018-04-25T02:47:41.598Z,0.00
2018-04-25T02:48:41.891Z,0.00
2018-04-25T02:50:41.644Z,0.00
2018-04-25T02:51:41.580Z,0.00
2018-04-25T02:52:41.515Z,0.00
2018-04-25T02:53:41.503Z,0.00
2018-04-25T02:54:41.784Z,0.00
2018-04-25T02:55:41.564Z,0.00
2018-04-25T02:56:41.457Z,0.00
2018-04-25T02:57:41.511Z,0.00
2018-04-25T02:58:41.437Z,0.00
2018-04-25T02:59:41.405Z,0.00
2018-04-25T03:00:41.706Z,0.00
2018-04-25T03:01:41.377Z,0.00
2018-04-25T03:02:41.683Z,0.00
2018-04-25T03:03:41.412Z,0.00
2018-04-25T03:04:41.432Z,0.00
2018-04-25T03:05:41.317Z,0.00
2018-04-25T03:06:41.616Z,0.00
2018-04-25T03:07:41.354Z,0.00
2018-04-25T03:08:41.333Z,0.00
2018-04-25T03:09:41.474Z,0.00
2018-04-25T03:10:41.404Z,0.00
2018-04-25T03:11:41.304Z,0.00
2018-04-25T03:12:41.513Z,0.00
2018-04-25T03:13:41.549Z,0.00
2018-04-25T03:14:41.344Z,0.00
2018-04-25T03:15:41.300Z,0.00
2018-04-25T03:16:41.205Z,0.00
2018-04-25T03:17:41.193Z,0.00
2018-04-25T03:18:41.182Z,0.00
2018-04-25T03:19:41.516Z,0.00
2018-04-25T03:20:41.149Z,0.00
2018-04-25T03:21:41.175Z,0.00
2018-04-25T03:22:41.045Z,0.00
2018-04-25T03:24:41.013Z,0.00
2018-04-25T03:25:41.098Z,0.00
2018-04-25T03:27:41.327Z,0.00
2018-04-25T03:28:40.955Z,0.00
2018-04-25T03:29:40.937Z,0.00
2018-04-25T03:30:40.924Z,0.00
2018-04-25T03:31:40.919Z,0.00
2018-04-25T03:32:40.958Z,0.00
2018-04-25T03:33:41.291Z,0.00
2018-04-25T03:34:41.159Z,0.00
2018-04-25T03:35:40.844Z,0.00
2018-04-25T03:36:40.836Z,0.00
2018-04-25T03:37:40.816Z,0.00
2018-04-25T03:38:40.805Z,0.00
2018-04-25T03:39:40.829Z,0.00
2018-04-25T03:40:40.774Z,0.00
2018-04-25T03:41:41.056Z,0.00
2018-04-25T03:42:40.849Z,0.00
2018-04-25T03:43:40.799Z,0.00
2018-04-25T03:44:40.705Z,0.00
2018-04-25T03:45:40.841Z,0.00
2018-04-25T03:46:40.684Z,0.00
2018-04-25T03:47:40.658Z,0.00
2018-04-25T03:48:40.941Z,0.00
2018-04-25T03:49:40.636Z,0.00
2018-04-25T03:50:40.604Z,0.00
2018-04-25T03:51:40.647Z,0.00
2018-04-25T03:53:40.566Z,0.00
2018-04-25T03:54:40.593Z,0.00
2018-04-25T03:55:40.837Z,0.00
2018-04-25T03:56:40.520Z,0.00
2018-04-25T03:57:40.552Z,0.00
2018-04-25T03:58:40.483Z,0.00
2018-04-25T03:59:40.469Z,0.00
2018-04-25T04:00:40.461Z,0.00
2018-04-25T04:01:40.440Z,0.00
2018-04-25T04:02:40.831Z,0.00
2018-04-25T04:04:40.440Z,0.00
2018-04-25T04:05:40.378Z,0.00
2018-04-25T04:06:40.368Z,0.00
2018-04-25T04:07:40.337Z,0.00
2018-04-25T04:08:40.648Z,0.00
2018-04-25T04:09:40.315Z,0.00
2018-04-25T04:11:40.381Z,0.00
2018-04-25T04:12:40.314Z,0.00
2018-04-25T04:13:40.350Z,0.00
2018-04-25T04:14:40.534Z,0.00
2018-04-25T04:15:40.219Z,0.00
2018-04-25T04:16:40.250Z,0.00
2018-04-25T04:17:40.237Z,0.00
2018-04-25T04:18:40.171Z,0.00
2018-04-25T04:19:40.162Z,0.00
2018-04-25T04:20:40.437Z,0.00
2018-04-25T04:21:40.120Z,0.00
2018-04-25T04:22:40.151Z,0.00
2018-04-25T04:23:40.089Z,0.00
2018-04-25T04:24:40.070Z,0.00
2018-04-25T04:25:40.203Z,0.00
2018-04-25T04:26:40.338Z,0.00
2018-04-25T04:27:40.130Z,0.00
2018-04-25T04:28:40.280Z,0.00
2018-04-25T04:29:39.990Z,0.00
2018-04-25T04:30:40.047Z,0.00
2018-04-25T04:32:40.245Z,0.00
2018-04-25T04:33:40.031Z,0.00
2018-04-25T04:34:40.036Z,0.00
2018-04-25T04:35:39.903Z,0.00
2018-04-25T04:36:39.900Z,0.00
2018-04-25T04:37:39.872Z,0.00
2018-04-25T04:38:40.455Z,0.00
2018-04-25T04:39:39.844Z,0.00
2018-04-25T04:40:39.875Z,0.00
2018-04-25T04:41:39.807Z,0.00
2018-04-25T04:42:39.790Z,0.00
2018-04-25T04:43:40.070Z,0.00
2018-04-25T04:44:40.053Z,0.00
2018-04-25T04:45:39.847Z,0.00
2018-04-25T04:46:39.834Z,0.00
2018-04-25T04:47:39.709Z,0.00
2018-04-25T04:48:39.698Z,0.00
2018-04-25T04:49:39.680Z,0.00
2018-04-25T04:50:39.714Z,0.00
2018-04-25T04:51:39.968Z,0.00
2018-04-25T04:52:41.511Z,0.00
2018-04-25T04:53:39.805Z,0.00
2018-04-25T04:54:39.600Z,0.00
2018-04-25T04:55:39.642Z,0.00
2018-04-25T04:56:39.580Z,0.00
2018-04-25T04:57:39.553Z,0.00
2018-04-25T04:58:40.013Z,0.00
2018-04-25T04:59:39.647Z,0.00
2018-04-25T05:00:39.514Z,0.00
2018-04-25T05:01:39.531Z,0.00
2018-04-25T05:02:39.514Z,0.00
2018-04-25T05:03:39.474Z,0.00
2018-04-25T05:04:39.525Z,0.00
2018-04-25T05:05:39.755Z,0.00
2018-04-25T05:06:39.441Z,0.00
2018-04-25T05:07:39.404Z,0.00
2018-04-25T05:08:39.479Z,0.00
2018-04-25T05:09:39.378Z,0.00
2018-04-25T05:10:39.407Z,0.00
2018-04-25T05:11:39.357Z,0.00
2018-04-25T05:12:39.630Z,0.00
2018-04-25T05:15:39.288Z,0.00
2018-04-25T05:17:39.311Z,0.00
2018-04-25T05:18:39.235Z,0.00
2018-04-25T05:19:39.534Z,0.00
2018-04-25T05:20:39.213Z,0.00
2018-04-25T05:21:39.316Z,0.00
2018-04-25T05:22:39.183Z,0.00
2018-04-25T05:23:39.227Z,0.00
2018-04-25T05:24:39.233Z,0.00
2018-04-25T05:25:39.150Z,0.00
2018-04-25T05:26:39.181Z,0.00
2018-04-25T05:27:39.111Z,0.00
2018-04-25T05:28:39.088Z,0.29
2018-04-25T05:29:39.122Z,0.57
2018-04-25T05:30:39.061Z,4.97
2018-04-25T05:31:39.056Z,4.97
2018-04-25T05:32:39.367Z,2.96
2018-04-25T05:33:39.021Z,6.50
2018-04-25T05:34:39.036Z,6.21
2018-04-25T05:35:39.063Z,9.37
2018-04-25T05:36:38.978Z,11.19
2018-04-25T05:37:38.977Z,13.20
2018-04-25T05:38:39.338Z,12.53
2018-04-25T05:39:38.943Z,11.47
2018-04-25T05:40:38.921Z,12.34
2018-04-25T05:41:38.969Z,10.71
2018-04-25T05:42:38.891Z,15.30
2018-04-25T05:43:38.885Z,13.68
2018-04-25T05:44:39.164Z,18.84
2018-04-25T05:45:38.848Z,15.69
2018-04-25T05:46:38.845Z,14.83
2018-04-25T05:47:38.951Z,14.15
2018-04-25T05:48:38.893Z,16.45
2018-04-25T05:49:38.801Z,18.84
2018-04-25T05:50:39.089Z,14.83
2018-04-25T05:51:38.900Z,20.95
2018-04-25T05:52:38.806Z,19.04
2018-04-25T05:53:38.882Z,22.58
2018-04-25T05:54:38.742Z,20.29
2018-04-25T05:55:38.712Z,23.25
2018-04-25T05:56:39.244Z,28.99
2018-04-25T05:57:38.681Z,30.05
2018-04-25T05:58:38.733Z,33.59
2018-04-25T05:59:38.799Z,30.15
2018-04-25T06:00:39.039Z,36.47
2018-04-25T06:01:38.627Z,37.24
2018-04-25T06:02:38.931Z,34.85
2018-04-25T06:03:38.650Z,36.19
2018-04-25T06:04:38.575Z,35.71
2018-04-25T06:05:38.626Z,36.10
2018-04-25T06:06:38.545Z,34.37
2018-04-25T06:07:38.584Z,37.24
2018-04-25T06:08:38.828Z,38.30
2018-04-25T06:09:38.516Z,37.53
2018-04-25T06:10:38.498Z,36.86
2018-04-25T06:11:38.551Z,43.18
2018-04-25T06:12:38.572Z,44.90
2018-04-25T06:13:38.491Z,48.73
2018-04-25T06:14:38.808Z,48.25
2018-04-25T06:15:38.438Z,50.48
2018-04-25T06:16:38.420Z,52.47
2018-04-25T06:17:38.466Z,51.54
2018-04-25T06:18:38.400Z,54.03
2018-04-25T06:19:38.401Z,54.70
2018-04-25T06:20:38.721Z,56.10
2018-04-25T06:21:38.473Z,52.56
2018-04-25T06:22:38.340Z,54.22
2018-04-25T06:23:38.897Z,54.50
2018-04-25T06:24:38.324Z,57.48
2018-04-25T06:25:38.307Z,57.09
2018-04-25T06:26:38.423Z,59.11
2018-04-25T06:27:38.584Z,59.01
2018-04-25T06:28:38.259Z,58.24
2018-04-25T06:29:38.313Z,59.97
2018-04-25T06:30:38.536Z,58.72
2018-04-25T06:31:38.224Z,63.60
2018-04-25T06:32:38.460Z,65.84
2018-04-25T06:33:38.635Z,63.64
2018-04-25T06:35:38.502Z,68.43
2018-04-25T06:36:38.185Z,66.71
2018-04-25T06:38:38.135Z,67.66
2018-04-25T06:39:38.444Z,71.11
2018-04-25T06:40:38.113Z,68.91
2018-04-25T06:41:38.245Z,71.11
2018-04-25T06:42:38.153Z,69.39
2018-04-25T06:43:38.067Z,76.04
2018-04-25T06:44:38.073Z,78.69
2018-04-25T06:46:38.345Z,73.99
2018-04-25T06:47:38.059Z,73.61
2018-04-25T06:48:37.998Z,68.62
2018-04-25T06:49:38.041Z,69.10
2018-04-25T06:50:38.056Z,72.61
2018-04-25T06:51:38.018Z,76.19
2018-04-25T06:52:37.979Z,74.66
2018-04-25T06:53:38.396Z,75.39
2018-04-25T06:54:37.955Z,71.46
2018-04-25T06:55:37.924Z,74.62
2018-04-25T06:56:37.956Z,75.10
2018-04-25T06:57:37.912Z,73.47
2018-04-25T06:58:37.997Z,74.43
2018-04-25T06:59:37.916Z,71.66
2018-04-25T07:00:38.171Z,74.52
2018-04-25T07:01:38.040Z,72.52
2018-04-25T07:02:37.968Z,69.54
2018-04-25T07:03:37.819Z,75.29
2018-04-25T07:04:37.912Z,78.55
2018-04-25T07:05:38.172Z,75.10
2018-04-25T07:06:37.831Z,72.99
2018-04-25T07:07:38.274Z,75.39
2018-04-25T07:08:38.616Z,76.25
2018-04-25T07:09:38.045Z,76.35
2018-04-25T07:10:38.615Z,76.25
2018-04-25T07:11:45.678Z,75.10
2018-04-25T07:12:37.708Z,75.29
2018-04-25T07:13:37.988Z,77.78
2018-04-25T07:14:37.693Z,75.29
2018-04-25T07:15:37.668Z,75.87
2018-04-25T07:16:37.709Z,79.32
2018-04-25T07:17:37.705Z,77.59
2018-04-25T07:18:37.711Z,81.23
2018-04-25T07:19:37.924Z,78.93
2018-04-25T07:20:37.610Z,78.20
2018-04-25T07:24:38.270Z,75.52
2018-04-25T07:25:37.947Z,80.89
2018-04-25T07:26:37.744Z,79.89
2018-04-25T07:27:37.611Z,78.64
2018-04-25T07:28:37.526Z,80.76
2018-04-25T07:29:37.618Z,81.46
2018-04-25T07:30:37.843Z,80.79
2018-04-25T07:31:37.868Z,83.19
2018-04-25T07:32:37.695Z,83.91
2018-04-25T07:33:37.461Z,78.97
2018-04-25T07:34:37.669Z,79.45
2018-04-25T07:35:37.416Z,78.78
2018-04-25T07:36:37.463Z,80.03
2018-04-25T07:37:37.690Z,79.07
2018-04-25T07:38:37.388Z,77.44
2018-04-25T07:39:37.372Z,73.32
2018-04-25T07:40:37.352Z,67.72
2018-04-25T07:41:37.525Z,64.85
2018-04-25T07:42:37.374Z,66.00
2018-04-25T07:43:37.629Z,64.76
2018-04-25T07:44:37.313Z,63.13
2018-04-25T07:45:37.295Z,66.96
2018-04-25T07:47:37.396Z,63.60
2018-04-25T07:48:37.429Z,61.40
2018-04-25T07:49:38.030Z,60.41
2018-04-25T07:50:37.240Z,57.76
2018-04-25T07:51:37.228Z,63.60
2018-04-25T07:52:37.308Z,57.95
2018-04-25T07:53:37.224Z,61.40
2018-04-25T07:54:37.242Z,59.01
2018-04-25T07:55:37.482Z,60.67
2018-04-25T07:56:37.473Z,75.08
2018-04-25T07:57:37.484Z,84.66
2018-04-25T07:58:37.396Z,78.67
2018-04-25T07:59:37.131Z,78.57
2018-04-25T08:00:37.172Z,75.95
2018-04-25T08:01:37.421Z,73.74
2018-04-25T08:02:37.090Z,84.14
2018-04-25T08:03:37.082Z,76.14
2018-04-25T08:04:37.059Z,80.49
2018-04-25T08:05:37.053Z,81.16
2018-04-25T08:06:37.673Z,84.95
2018-04-25T08:07:37.464Z,81.93
2018-04-25T08:08:37.023Z,72.30
2018-04-25T08:09:37.445Z,82.89
2018-04-25T08:10:37.000Z,81.18
2018-04-25T08:11:36.994Z,83.42
2018-04-25T08:12:37.091Z,77.19
2018-04-25T08:13:37.286Z,74.60
2018-04-25T08:14:37.011Z,82.18
2018-04-25T08:15:36.943Z,77.09
2018-04-25T08:16:36.937Z,85.38
2018-04-25T08:17:36.914Z,83.94
2018-04-25T08:18:36.969Z,91.76
2018-04-25T08:20:37.190Z,93.30
2018-04-25T08:21:37.193Z,86.68
2018-04-25T08:22:36.946Z,87.45
2018-04-25T08:23:36.954Z,88.93
2018-04-25T08:24:36.909Z,95.41
2018-04-25T08:25:36.831Z,92.96
2018-04-25T08:26:37.137Z,95.65
2018-04-25T08:27:36.827Z,99.99
2018-04-25T08:28:36.806Z,94.74
2018-04-25T08:29:36.794Z,99.99
2018-04-25T08:30:36.835Z,99.99
2018-04-25T08:31:36.771Z,99.99
2018-04-25T08:32:37.073Z,99.99
2018-04-25T08:33:36.868Z,99.99
2018-04-25T08:34:36.768Z,99.99
2018-04-25T08:35:36.737Z,99.99
2018-04-25T08:36:36.792Z,97.95
2018-04-25T08:37:36.771Z,95.79
2018-04-25T08:38:37.127Z,98.53
2018-04-25T08:39:36.706Z,99.99
2018-04-25T08:40:36.732Z,99.99
2018-04-25T08:41:36.774Z,99.99
2018-04-25T08:42:36.725Z,97.33
2018-04-25T08:43:36.657Z,95.79
2018-04-25T08:44:37.120Z,97.33
2018-04-25T08:45:36.637Z,99.99
2018-04-25T08:46:36.630Z,99.99
2018-04-25T08:47:36.627Z,99.99
2018-04-25T08:48:36.664Z,99.99
2018-04-25T08:49:36.598Z,99.99
2018-04-25T08:50:36.901Z,99.99
2018-04-25T08:51:36.598Z,99.99
2018-04-25T08:52:36.681Z,99.99
2018-04-25T08:53:36.863Z,99.24
2018-04-25T08:54:36.723Z,99.99
2018-04-25T08:55:36.556Z,99.99
2018-04-25T08:56:36.849Z,99.99
2018-04-25T08:57:36.841Z,99.99
2018-04-25T08:58:36.513Z,99.99
2018-04-25T08:59:36.507Z,99.99
2018-04-25T09:00:36.592Z,99.99
2018-04-25T09:01:36.544Z,99.99
2018-04-25T09:02:36.782Z,99.99
2018-04-25T09:03:36.481Z,99.99
2018-04-25T09:04:36.480Z,99.99
2018-04-25T09:05:36.565Z,99.99
2018-04-25T09:06:36.641Z,99.99
2018-04-25T09:07:36.478Z,99.99
2018-04-25T09:08:36.725Z,99.99
2018-04-25T09:09:36.427Z,99.99
2018-04-25T09:10:36.405Z,99.99
2018-04-25T09:11:36.396Z,99.99
2018-04-25T09:12:36.444Z,99.99
2018-04-25T09:13:36.603Z,99.99
2018-04-25T09:14:36.726Z,99.99
2018-04-25T09:15:36.488Z,99.99
2018-04-25T09:16:36.362Z,99.99
2018-04-25T09:17:36.354Z,99.99
2018-04-25T09:18:36.500Z,99.99
2018-04-25T09:19:36.353Z,99.99
2018-04-25T09:20:36.625Z,99.99
2018-04-25T09:21:36.415Z,99.99
2018-04-25T09:22:36.362Z,99.99
2018-04-25T09:23:37.654Z,99.99
2018-04-25T09:24:36.368Z,99.99
2018-04-25T09:27:36.592Z,96.89
2018-04-25T09:29:36.256Z,99.92
2018-04-25T09:30:36.308Z,99.99
2018-04-25T09:31:36.235Z,98.86
2018-04-25T09:32:36.313Z,97.24
2018-04-25T09:33:36.490Z,90.56
2018-04-25T09:34:36.206Z,99.99
2018-04-25T09:35:36.286Z,95.94
2018-04-25T09:36:36.291Z,89.60
2018-04-25T09:37:36.165Z,86.38
2018-04-25T09:38:36.153Z,80.75
2018-04-25T09:39:36.440Z,79.32
2018-04-25T09:40:36.140Z,79.03
2018-04-25T09:41:36.437Z,80.38
2018-04-25T09:42:36.164Z,80.28
2018-04-25T09:43:36.105Z,79.03
2018-04-25T09:44:36.109Z,76.15
2018-04-25T09:45:36.108Z,89.61
2018-04-25T09:46:36.384Z,85.08
2018-04-25T09:47:36.083Z,81.10
2018-04-25T09:48:36.190Z,87.98
2018-04-25T09:49:36.073Z,87.11
2018-04-25T09:50:36.111Z,80.35
2018-04-25T09:51:36.055Z,78.40
2018-04-25T09:52:36.364Z,79.55
2018-04-25T09:53:36.093Z,81.62
2018-04-25T09:54:36.081Z,74.60
2018-04-25T09:55:36.023Z,72.68
2018-04-25T09:56:36.016Z,71.57
2018-04-25T09:57:36.077Z,67.96
2018-04-25T09:58:36.295Z,68.34
2018-04-25T09:59:36.090Z,67.22
2018-04-25T10:00:36.028Z,65.30
2018-04-25T10:01:36.687Z,65.33
2018-04-25T10:02:35.968Z,64.53
2018-04-25T10:05:36.254Z,64.18
2018-04-25T10:06:35.985Z,67.61
2018-04-25T10:07:35.938Z,64.85
2018-04-25T10:08:35.921Z,63.45
2018-04-25T10:09:35.973Z,66.26
2018-04-25T10:10:35.892Z,72.81
2018-04-25T10:11:36.189Z,77.58
2018-04-25T10:12:36.273Z,88.75
2018-04-25T10:13:36.179Z,93.63
2018-04-25T10:14:35.872Z,96.32
2018-04-25T10:15:35.857Z,99.99
2018-04-25T10:16:35.867Z,99.99
2018-04-25T10:17:36.295Z,99.99
2018-04-25T10:18:35.904Z,99.99
2018-04-25T10:19:35.827Z,99.99
2018-04-25T10:20:35.823Z,99.99
2018-04-25T10:21:35.819Z,99.99
2018-04-25T10:22:35.800Z,99.99
2018-04-25T10:23:36.092Z,99.99
2018-04-25T10:24:35.989Z,99.99
2018-04-25T10:25:35.852Z,99.99
2018-04-25T10:26:35.774Z,99.99
2018-04-25T10:27:35.935Z,99.99
2018-04-25T10:28:35.743Z,99.99
2018-04-25T10:29:36.041Z,99.99
2018-04-25T10:30:35.835Z,99.99
2018-04-25T10:31:35.716Z,99.99
2018-04-25T10:32:35.822Z,99.99
2018-04-25T10:33:35.757Z,99.99
2018-04-25T10:34:35.674Z,99.99
2018-04-25T10:36:36.026Z,99.99
2018-04-25T10:37:35.746Z,99.99
2018-04-25T10:38:35.657Z,99.99
2018-04-25T10:39:35.978Z,99.99
2018-04-25T10:41:35.612Z,99.99
2018-04-25T10:42:35.951Z,99.99
2018-04-25T10:43:35.587Z,99.99
2018-04-25T10:44:35.586Z,99.99
2018-04-25T10:45:35.631Z,99.99
2018-04-25T10:46:35.557Z,99.99
2018-04-25T10:47:35.559Z,99.99
2018-04-25T10:48:35.911Z,99.99
2018-04-25T10:49:35.514Z,99.99
2018-04-25T10:50:35.507Z,99.99
2018-04-25T10:51:35.500Z,99.99
2018-04-25T10:52:35.482Z,99.99
2018-04-25T10:53:35.475Z,99.99
2018-04-25T10:54:35.818Z,99.99
2018-04-25T10:55:35.458Z,99.99
2018-04-25T10:56:35.447Z,99.99
2018-04-25T10:57:35.432Z,99.99
2018-04-25T10:58:35.449Z,99.99
2018-04-25T10:59:35.417Z,99.99
2018-04-25T11:00:35.908Z,99.99
2018-04-25T11:01:35.504Z,99.99
2018-04-25T11:02:35.575Z,99.99
2018-04-25T11:03:35.422Z,99.99
2018-04-25T11:04:36.138Z,99.99
2018-04-25T11:05:35.504Z,99.99
2018-04-25T11:06:35.401Z,99.99
2018-04-25T11:07:35.649Z,99.99
2018-04-25T11:08:35.401Z,99.99
2018-04-25T11:10:35.314Z,99.99
2018-04-25T11:11:35.301Z,99.99
2018-04-25T11:12:35.335Z,99.99
2018-04-25T11:13:35.279Z,99.99
2018-04-25T11:14:35.628Z,99.99
2018-04-25T11:15:35.249Z,99.99
2018-04-25T11:16:35.251Z,99.99
2018-04-25T11:17:35.239Z,99.99
2018-04-25T11:18:35.383Z,99.99
2018-04-25T11:19:35.223Z,99.99
2018-04-25T11:20:35.209Z,99.99
2018-04-25T11:21:35.502Z,99.99
2018-04-25T11:22:35.185Z,99.99
2018-04-25T11:23:35.183Z,99.99
2018-04-25T11:24:35.322Z,99.99
2018-04-25T11:25:35.151Z,99.99
2018-04-25T11:26:35.243Z,99.99
2018-04-25T11:27:35.522Z,99.99
2018-04-25T11:28:35.134Z,99.99
2018-04-25T11:29:35.128Z,99.99
2018-04-25T11:30:35.202Z,99.99
2018-04-25T11:31:35.089Z,99.99
2018-04-25T11:32:35.093Z,99.99
2018-04-25T11:33:35.405Z,99.99
2018-04-25T11:34:35.204Z,99.99
2018-04-25T11:35:35.232Z,99.99
2018-04-25T11:36:35.283Z,99.99
2018-04-25T11:37:35.226Z,99.99
2018-04-25T11:38:35.063Z,99.99
2018-04-25T11:39:35.307Z,99.99
2018-04-25T11:40:35.084Z,99.99
2018-04-25T11:41:34.974Z,99.99
2018-04-25T11:42:35.008Z,99.99
2018-04-25T11:43:34.960Z,99.99
2018-04-25T11:44:34.929Z,99.99
2018-04-25T11:45:35.212Z,99.99
2018-04-25T11:46:34.898Z,99.99
2018-04-25T11:47:34.921Z,99.99
2018-04-25T11:48:35.230Z,99.99
2018-04-25T11:49:34.871Z,99.99
2018-04-25T11:50:34.865Z,99.99
2018-04-25T11:51:35.151Z,99.99
2018-04-25T11:52:34.884Z,99.99
2018-04-25T11:53:34.866Z,99.99
2018-04-25T11:54:34.849Z,99.99
2018-04-25T11:55:34.799Z,99.99
2018-04-25T11:56:34.785Z,99.99
2018-04-25T11:57:35.072Z,99.99
2018-04-25T11:58:34.773Z,99.99
2018-04-25T11:59:34.859Z,99.99
2018-04-25T12:00:34.788Z,99.99
2018-04-25T12:01:34.728Z,99.99
2018-04-25T12:02:34.711Z,99.99
2018-04-25T12:03:35.002Z,99.99
2018-04-25T12:04:34.725Z,99.99
2018-04-25T12:05:34.701Z,99.99
2018-04-25T12:06:34.727Z,99.99
2018-04-25T12:07:34.662Z,99.99
2018-04-25T12:08:34.695Z,99.99
2018-04-25T12:09:34.623Z,99.99
2018-04-25T12:10:34.915Z,99.99
2018-04-25T12:11:34.601Z,99.99
2018-04-25T12:12:34.636Z,99.99
2018-04-25T12:14:34.578Z,99.99
2018-04-25T12:15:34.552Z,99.99
2018-04-25T12:16:34.861Z,99.99
2018-04-25T12:17:34.593Z,99.99
2018-04-25T12:18:34.657Z,99.99
2018-04-25T12:19:34.597Z,99.99
2018-04-25T12:20:34.533Z,99.99
2018-04-25T12:21:34.528Z,99.99
2018-04-25T12:22:34.815Z,99.99
2018-04-25T12:23:34.452Z,99.99
2018-04-25T12:24:34.640Z,99.99
2018-04-25T12:25:34.542Z,99.99
2018-04-25T12:26:34.575Z,99.99
2018-04-25T12:27:34.432Z,99.99
2018-04-25T12:30:34.811Z,99.99
2018-04-25T12:31:34.368Z,99.99
2018-04-25T12:32:34.422Z,99.99
2018-04-25T12:33:34.386Z,99.99
2018-04-25T12:34:34.404Z,99.99
2018-04-25T12:35:34.375Z,99.99
2018-04-25T12:36:34.494Z,99.99
2018-04-25T12:37:35.053Z,99.99
2018-04-25T12:38:35.920Z,99.99
2018-04-25T12:39:34.283Z,99.99
2018-04-25T12:40:34.315Z,99.99
2018-04-25T12:41:44.734Z,99.99
2018-04-25T12:43:34.351Z,99.99
2018-04-25T12:44:34.525Z,99.99
2018-04-25T12:45:34.559Z,99.99
2018-04-25T12:46:34.305Z,99.99
2018-04-25T12:47:34.326Z,99.99
2018-04-25T12:48:34.212Z,99.99
2018-04-25T12:49:34.220Z,99.99
2018-04-25T12:50:34.544Z,99.99
2018-04-25T12:51:34.178Z,99.99
2018-04-25T12:53:34.230Z,99.99
2018-04-25T12:54:34.127Z,99.99
2018-04-25T12:55:34.088Z,99.99
2018-04-25T12:56:34.482Z,99.99
2018-04-25T12:57:34.128Z,99.99
2018-04-25T12:58:34.312Z,99.99
2018-04-25T12:59:34.027Z,99.99
2018-04-25T13:00:34.177Z,99.99
2018-04-25T13:01:34.139Z,99.99
2018-04-25T13:02:34.390Z,98.56
2018-04-25T13:03:34.174Z,98.80
2018-04-25T13:04:34.196Z,99.18
2018-04-25T13:05:34.043Z,99.99
2018-04-25T13:07:34.768Z,95.61
2018-04-25T13:08:34.085Z,94.22
2018-04-25T13:10:33.928Z,98.80
2018-04-25T13:11:34.116Z,98.52
2018-04-25T13:12:33.839Z,97.99
2018-04-25T13:13:34.185Z,95.65
2018-04-25T13:14:36.452Z,96.66
2018-04-25T13:15:33.821Z,94.84
2018-04-25T13:16:34.082Z,95.41
2018-04-25T13:17:33.756Z,93.02
2018-04-25T13:18:33.810Z,91.88
2018-04-25T13:20:33.773Z,95.17
2018-04-25T13:21:33.741Z,96.61
2018-04-25T13:22:33.993Z,97.47
2018-04-25T13:23:33.693Z,96.51
2018-04-25T13:24:33.666Z,96.42
2018-04-25T13:25:33.663Z,95.65
2018-04-25T13:26:33.683Z,95.46
2018-04-25T13:27:33.629Z,95.65
2018-04-25T13:28:33.621Z,94.79
2018-04-25T13:29:33.907Z,93.36
2018-04-25T13:31:33.610Z,94.07
2018-04-25T13:32:33.605Z,94.22
2018-04-25T13:33:33.537Z,92.26
2018-04-25T13:34:33.697Z,91.31
2018-04-25T13:35:33.826Z,90.55
2018-04-25T13:36:33.563Z,90.55
2018-04-25T13:37:33.558Z,88.83
2018-04-25T13:38:33.608Z,89.50
2018-04-25T13:39:33.472Z,88.26
2018-04-25T13:40:33.435Z,85.30